Time;durP1;ratioP1;P1;durP2;ratioP2;P2;SDS_P1;SDS_P2;PMS_P1;PMS_P2;Temp;Humidity;BMP_temperature;BMP_pressure;BME280_temperature;BME280_humidity;BME280_pressure;Samples;Min_cycle;Max_cycle;Signal;HPM_P1;HPM_P2
2022/08/19 04:45:33;;;;;;;39.90;16.67;;;;;;;;;;5064108;27;20650;-63
2022/08/19 04:47:59;;;;;;;36.97;14.48;;;;;;;;;;5025294;28;20482;-63
2022/08/19 04:50:26;;;;;;;44.75;12.73;;;;;;;;;;5044755;28;20526;-64
2022/08/19 04:52:52;;;;;;;33.42;12.02;;;;;;;;;;5043409;28;20343;-63
2022/08/19 04:55:18;;;;;;;34.53;12.68;;;;;;;;;;5043530;28;20400;-62
2022/08/19 04:57:43;;;;;;;24.38;10.50;;;;;;;;;;5043323;28;20104;-62
2022/08/19 05:00:09;;;;;;;21.17;10.43;;;;;;;;;;5043546;28;20386;-64
2022/08/19 05:02:35;;;;;;;16.95;8.80;;;;;;;;;;5043297;28;20433;-62
2022/08/19 05:05:00;;;;;;;17.08;7.60;;;;;;;;;;5043833;28;20489;-62
2022/08/19 05:07:26;;;;;;;15.63;8.93;;;;;;;;;;5036627;28;20393;-63
2022/08/19 05:09:52;;;;;;;18.83;11.13;;;;;;;;;;5043207;28;20036;-63
2022/08/19 05:12:17;;;;;;;23.50;15.10;;;;;;;;;;5043234;28;20503;-62
2022/08/19 05:14:44;;;;;;;17.30;10.90;;;;;;;;;;5043595;28;20492;-66
2022/08/19 05:17:10;;;;;;;36.38;10.23;;;;;;;;;;5043642;28;20408;-62
2022/08/19 05:22:34;;;;;;;21.95;10.13;;;;;;;;;;5042082;28;20431;-63
2022/08/19 05:25:02;;;;;;;22.17;9.50;;;;;;;;;;5043557;28;20419;-62
2022/08/19 05:27:27;;;;;;;20.20;9.43;;;;;;;;;;5043388;28;20412;-62
2022/08/19 05:29:53;;;;;;;14.80;9.10;;;;;;;;;;5044341;28;20366;-63
2022/08/19 05:32:19;;;;;;;16.95;9.77;;;;;;;;;;5042975;28;20454;-62
2022/08/19 05:34:44;;;;;;;19.67;8.88;;;;;;;;;;5042734;28;20406;-62
2022/08/19 05:37:10;;;;;;;14.70;9.23;;;;;;;;;;5043921;28;20450;-62
2022/08/19 05:39:37;;;;;;;18.02;8.88;;;;;;;;;;5043537;28;20445;-61
2022/08/19 05:42:08;;;;;;;16.58;8.95;;;;;;;;;;5043783;28;20308;-63
2022/08/19 05:44:36;;;;;;;16.20;9.43;;;;;;;;;;5029910;28;20452;-61
2022/08/19 05:47:04;;;;;;;16.52;9.50;;;;;;;;;;5023031;28;20496;-62
2022/08/19 05:49:30;;;;;;;16.52;9.10;;;;;;;;;;5023084;28;20398;-62
2022/08/19 05:51:56;;;;;;;19.13;8.95;;;;;;;;;;5022333;28;20043;-63
2022/08/19 05:54:22;;;;;;;16.05;8.90;;;;;;;;;;5023708;28;20411;-62
2022/08/19 05:56:49;;;;;;;17.17;8.68;;;;;;;;;;5009458;28;20317;-63
2022/08/19 05:59:16;;;;;;;16.65;8.20;;;;;;;;;;5008959;28;20056;-62
2022/08/19 06:01:44;;;;;;;14.18;9.20;;;;;;;;;;5008917;28;20422;-63
2022/08/19 06:04:09;;;;;;;14.03;8.53;;;;;;;;;;5009774;28;20352;-63
2022/08/19 06:06:35;;;;;;;15.95;8.27;;;;;;;;;;5008771;28;20437;-62
2022/08/19 06:09:04;;;;;;;16.63;8.43;;;;;;;;;;5009315;28;20431;-62
2022/08/19 06:11:41;;;;;;;10.18;7.65;;;;;;;;;;5009311;28;20332;-62
2022/08/19 06:14:13;;;;;;;13.85;6.97;;;;;;;;;;5008659;28;20047;-62
2022/08/19 06:16:39;;;;;;;14.15;7.95;;;;;;;;;;5008975;28;20337;-63
2022/08/19 06:19:08;;;;;;;18.73;7.68;;;;;;;;;;5008594;28;20460;-62
2022/08/19 06:21:37;;;;;;;13.30;8.32;;;;;;;;;;5008391;28;20320;-62
2022/08/19 06:24:07;;;;;;;12.20;9.07;;;;;;;;;;5008358;28;20101;-63
2022/08/19 06:26:35;;;;;;;13.10;7.93;;;;;;;;;;5008308;28;20320;-63
2022/08/19 06:29:00;;;;;;;22.42;8.35;;;;;;;;;;5008800;28;20432;-62
2022/08/19 06:31:28;;;;;;;16.17;7.97;;;;;;;;;;5008811;28;20343;-62
2022/08/19 06:33:53;;;;;;;18.20;8.05;;;;;;;;;;5008199;28;20439;-62
2022/08/19 06:36:30;;;;;;;12.32;7.78;;;;;;;;;;5008472;28;20352;-65
2022/08/19 06:38:58;;;;;;;12.90;7.10;;;;;;;;;;5008277;28;20381;-61
2022/08/19 06:41:25;;;;;;;11.38;7.80;;;;;;;;;;5008068;28;20363;-62
2022/08/19 06:43:51;;;;;;;10.63;7.75;;;;;;;;;;5007979;28;20045;-62
2022/08/19 06:46:18;;;;;;;12.43;6.90;;;;;;;;;;5008718;28;20426;-62
2022/08/19 06:48:44;;;;;;;12.13;7.05;;;;;;;;;;5008493;28;20466;-62
2022/08/19 06:51:10;;;;;;;9.32;6.53;;;;;;;;;;5008295;28;20443;-62
2022/08/19 06:53:35;;;;;;;9.15;6.50;;;;;;;;;;5008378;28;20334;-61
2022/08/19 06:56:02;;;;;;;15.38;7.10;;;;;;;;;;5009253;28;20493;-61
2022/08/19 06:58:34;;;;;;;9.88;7.18;;;;;;;;;;5007993;28;20532;-62
2022/08/19 07:01:01;;;;;;;10.55;6.47;;;;;;;;;;5010228;28;20501;-62
2022/08/19 07:03:30;;;;;;;9.50;6.75;;;;;;;;;;5008634;28;20529;-62
2022/08/19 07:05:56;;;;;;;10.77;7.22;;;;;;;;;;5008157;28;20343;-62
2022/08/19 07:08:21;;;;;;;11.32;6.68;;;;;;;;;;4989925;28;20321;-62
2022/08/19 07:10:48;;;;;;;9.15;6.03;;;;;;;;;;5008918;28;20408;-64
2022/08/19 07:13:14;;;;;;;13.77;6.80;;;;;;;;;;5007549;28;20094;-62
2022/08/19 07:15:39;;;;;;;11.77;7.35;;;;;;;;;;5008871;28;20447;-64
2022/08/19 07:18:05;;;;;;;10.80;6.75;;;;;;;;;;5007722;28;20549;-62
2022/08/19 07:20:30;;;;;;;12.27;7.00;;;;;;;;;;5007635;28;20471;-62
2022/08/19 07:22:55;;;;;;;10.57;6.20;;;;;;;;;;5007511;28;20033;-61
2022/08/19 07:25:21;;;;;;;9.05;6.38;;;;;;;;;;5008966;28;20051;-62
2022/08/19 07:27:49;;;;;;;11.35;6.68;;;;;;;;;;5007571;28;20467;-62
2022/08/19 07:30:14;;;;;;;12.20;7.23;;;;;;;;;;5008362;28;20443;-63
2022/08/19 07:32:40;;;;;;;11.30;6.32;;;;;;;;;;5007437;28;20500;-61
2022/08/19 07:35:07;;;;;;;8.70;5.72;;;;;;;;;;5007123;28;20630;-65
2022/08/19 07:37:32;;;;;;;9.45;6.45;;;;;;;;;;5007068;28;20367;-64
2022/08/19 07:39:57;;;;;;;7.05;5.93;;;;;;;;;;5008631;28;20451;-62
2022/08/19 07:42:23;;;;;;;9.52;7.03;;;;;;;;;;5007554;28;20352;-62
2022/08/19 07:44:48;;;;;;;11.27;6.10;;;;;;;;;;5006826;28;20052;-62
2022/08/19 07:47:15;;;;;;;8.32;6.35;;;;;;;;;;5006814;28;20032;-61
2022/08/19 07:49:41;;;;;;;11.60;6.68;;;;;;;;;;5007372;28;20335;-62
2022/08/19 07:52:08;;;;;;;8.88;6.10;;;;;;;;;;5007753;28;20574;-62
2022/08/19 07:54:35;;;;;;;9.52;6.03;;;;;;;;;;5006830;28;20351;-63
2022/08/19 07:57:01;;;;;;;9.65;6.15;;;;;;;;;;5007780;28;20145;-62
2022/08/19 07:59:28;;;;;;;8.15;5.97;;;;;;;;;;5007034;28;20037;-62
2022/08/19 08:01:54;;;;;;;11.63;6.68;;;;;;;;;;5007161;28;20514;-62
2022/08/19 08:09:49;;;;;;;6.65;5.50;;;;;;;;;;5007557;28;20433;-62
2022/08/19 08:12:22;;;;;;;9.00;6.40;;;;;;;;;;5006644;28;20471;-62
2022/08/19 08:14:53;;;;;;;9.75;5.75;;;;;;;;;;5007473;28;20389;-62
2022/08/19 08:17:21;;;;;;;8.32;5.80;;;;;;;;;;5007380;28;20419;-62
2022/08/19 08:19:46;;;;;;;10.00;6.07;;;;;;;;;;5006517;28;20489;-63
2022/08/19 08:25:16;;;;;;;9.60;6.17;;;;;;;;;;5007618;28;20517;-62
2022/08/19 08:27:42;;;;;;;7.72;5.43;;;;;;;;;;5007147;28;20339;-62
2022/08/19 08:30:14;;;;;;;7.07;5.43;;;;;;;;;;5008998;28;20462;-62
2022/08/19 08:32:40;;;;;;;7.93;5.50;;;;;;;;;;5006449;28;20328;-64
2022/08/19 08:35:08;;;;;;;7.53;5.25;;;;;;;;;;5006411;28;20395;-62
2022/08/19 08:37:34;;;;;;;7.82;5.20;;;;;;;;;;5006651;28;20510;-62
2022/08/19 08:40:07;;;;;;;11.77;5.28;;;;;;;;;;5006148;28;20461;-62
2022/08/19 08:42:36;;;;;;;10.57;5.53;;;;;;;;;;4988122;28;20557;-63
2022/08/19 08:45:19;;;;;;;6.70;5.07;;;;;;;;;;5015622;28;20462;-62
2022/08/19 08:47:48;;;;;;;6.55;4.82;;;;;;;;;;5024846;28;20543;-61
2022/08/19 08:50:22;;;;;;;;;;;;;;;;;;5025338;28;20027;-62
2022/08/19 08:52:55;;;;;;;8.15;4.88;;;;;;;;;;5024646;28;19911;-62
2022/08/19 08:55:24;;;;;;;9.02;4.97;;;;;;;;;;5024375;28;20346;-62
2022/08/19 08:58:03;;;;;;;6.18;4.57;;;;;;;;;;5024748;28;20451;-62
2022/08/19 09:00:30;;;;;;;9.80;5.72;;;;;;;;;;5026051;28;20388;-62
2022/08/19 09:02:57;;;;;;;8.65;5.22;;;;;;;;;;5026018;28;20324;-62
2022/08/19 09:05:23;;;;;;;12.32;5.88;;;;;;;;;;5025869;28;20328;-62
2022/08/19 09:07:52;;;;;;;6.32;4.80;;;;;;;;;;5025790;28;20529;-62
2022/08/19 09:10:43;;;;;;;9.48;4.90;;;;;;;;;;5026988;28;20521;-62
2022/08/19 09:13:14;;;;;;;7.20;4.53;;;;;;;;;;5024105;28;20454;-62
2022/08/19 09:15:44;;;;;;;8.57;4.57;;;;;;;;;;5026181;28;20439;-62
2022/08/19 09:18:09;;;;;;;7.72;4.75;;;;;;;;;;5025839;28;20447;-62
2022/08/19 09:20:35;;;;;;;9.05;4.90;;;;;;;;;;5025850;28;20028;-62
2022/08/19 09:23:00;;;;;;;7.13;4.88;;;;;;;;;;5026146;28;20338;-62
2022/08/19 09:25:26;;;;;;;6.43;4.70;;;;;;;;;;5026109;28;20493;-62
2022/08/19 09:28:02;;;;;;;6.53;4.63;;;;;;;;;;5025923;28;20339;-62
2022/08/19 09:30:29;;;;;;;7.30;4.28;;;;;;;;;;5027503;28;20444;-62
2022/08/19 09:32:55;;;;;;;7.38;4.13;;;;;;;;;;5030121;28;20358;-62
2022/08/19 09:35:22;;;;;;;6.57;4.72;;;;;;;;;;5029476;28;20363;-62
2022/08/19 09:37:49;;;;;;;7.45;4.68;;;;;;;;;;5030068;28;20403;-62
2022/08/19 09:40:15;;;;;;;8.02;4.55;;;;;;;;;;5029246;28;20328;-61
2022/08/19 09:42:43;;;;;;;8.00;4.28;;;;;;;;;;5029178;28;20354;-62
2022/08/19 09:45:09;;;;;;;6.73;4.23;;;;;;;;;;5012876;28;20412;-62
2022/08/19 09:47:37;;;;;;;6.65;4.15;;;;;;;;;;5010315;28;20092;-62
2022/08/19 09:50:07;;;;;;;5.28;4.13;;;;;;;;;;4991773;28;20478;-63
2022/08/19 09:52:32;;;;;;;6.40;4.47;;;;;;;;;;5009085;28;20429;-62
2022/08/19 09:54:58;;;;;;;7.10;4.40;;;;;;;;;;5010634;28;20106;-63
2022/08/19 09:57:23;;;;;;;6.72;4.10;;;;;;;;;;5009176;28;20774;-62
2022/08/19 09:59:48;;;;;;;5.72;4.30;;;;;;;;;;5009010;28;20399;-62
2022/08/19 10:02:13;;;;;;;7.93;4.35;;;;;;;;;;5009135;28;20358;-61
2022/08/19 10:07:24;;;;;;;5.70;3.95;;;;;;;;;;5010011;28;20542;-62
2022/08/19 10:09:49;;;;;;;6.70;4.18;;;;;;;;;;5008794;28;20494;-62
2022/08/19 10:12:15;;;;;;;8.75;4.55;;;;;;;;;;5010851;28;20398;-62
2022/08/19 10:14:40;;;;;;;4.95;3.75;;;;;;;;;;5008705;28;20060;-63
2022/08/19 10:17:06;;;;;;;8.45;4.68;;;;;;;;;;5008748;28;20420;-61
2022/08/19 10:19:35;;;;;;;7.68;3.90;;;;;;;;;;5008879;28;20523;-62
2022/08/19 10:22:05;;;;;;;5.70;4.22;;;;;;;;;;5009663;28;20101;-62
2022/08/19 10:24:31;;;;;;;8.88;4.53;;;;;;;;;;4992226;28;20032;-62
2022/08/19 10:26:56;;;;;;;5.78;4.10;;;;;;;;;;5009321;28;20523;-62
2022/08/19 10:29:22;;;;;;;6.75;3.88;;;;;;;;;;5009591;28;20431;-62
2022/08/19 10:31:47;;;;;;;7.03;4.03;;;;;;;;;;5009327;28;20094;-62
2022/08/19 10:34:13;;;;;;;6.18;3.83;;;;;;;;;;4990304;28;20047;-62
2022/08/19 10:36:38;;;;;;;8.32;4.55;;;;;;;;;;5008608;28;20490;-62
2022/08/19 10:39:06;;;;;;;5.70;4.00;;;;;;;;;;5008826;28;20461;-64
2022/08/19 10:41:35;;;;;;;6.20;4.10;;;;;;;;;;5008298;28;20358;-62
2022/08/19 10:44:07;;;;;;;6.22;3.65;;;;;;;;;;5007844;28;20368;-62
2022/08/19 10:46:37;;;;;;;5.13;3.90;;;;;;;;;;5009562;28;20403;-62
2022/08/19 10:49:04;;;;;;;5.40;3.22;;;;;;;;;;4990893;28;20425;-62
2022/08/19 10:54:15;;;;;;;7.32;4.03;;;;;;;;;;5010082;28;20139;-62
2022/08/19 10:56:52;;;;;;;4.40;3.47;;;;;;;;;;5007794;28;20036;-62
2022/08/19 10:59:27;;;;;;;4.72;3.60;;;;;;;;;;5007777;28;20577;-62
2022/08/19 11:01:53;;;;;;;7.95;3.70;;;;;;;;;;5009449;28;20327;-62
2022/08/19 11:04:19;;;;;;;5.05;3.67;;;;;;;;;;5007898;28;20474;-61
2022/08/19 11:06:47;;;;;;;7.18;3.38;;;;;;;;;;5007912;28;20501;-60
2022/08/19 11:09:17;;;;;;;6.25;3.58;;;;;;;;;;5007808;28;20451;-61
2022/08/19 11:11:43;;;;;;;9.23;3.30;;;;;;;;;;5008709;28;20020;-60
2022/08/19 11:14:10;;;;;;;5.38;3.53;;;;;;;;;;5007514;28;20090;-64
2022/08/19 11:16:38;;;;;;;6.15;3.53;;;;;;;;;;5008073;28;20454;-60
2022/08/19 11:19:05;;;;;;;5.38;3.83;;;;;;;;;;5008264;28;20486;-60
2022/08/19 11:21:34;;;;;;;4.50;3.10;;;;;;;;;;5007709;28;20473;-60
2022/08/19 11:24:02;;;;;;;7.97;3.20;;;;;;;;;;5007388;28;20548;-60
2022/08/19 11:26:29;;;;;;;4.78;3.10;;;;;;;;;;5007262;28;20029;-61
2022/08/19 11:28:55;;;;;;;4.93;2.67;;;;;;;;;;5007501;28;20564;-61
2022/08/19 11:31:23;;;;;;;6.10;2.50;;;;;;;;;;5007569;28;20455;-60
2022/08/19 11:33:51;;;;;;;4.95;2.70;;;;;;;;;;5007234;28;20340;-61
2022/08/19 11:36:17;;;;;;;;;;;;;;;;;;5007735;28;20342;-61
2022/08/19 11:38:43;;;;;;;6.97;3.13;;;;;;;;;;5007302;28;19912;-61
2022/08/19 11:41:08;;;;;;;4.18;2.95;;;;;;;;;;5007300;28;20455;-61
2022/08/19 11:43:36;;;;;;;3.58;2.75;;;;;;;;;;5007079;28;20067;-61
2022/08/19 11:46:14;;;;;;;5.03;3.10;;;;;;;;;;5007443;28;20029;-60
2022/08/19 11:48:40;;;;;;;6.20;3.05;;;;;;;;;;5007869;28;20129;-60
2022/08/19 11:51:14;;;;;;;3.92;2.65;;;;;;;;;;5007059;28;20024;-61
2022/08/19 11:53:40;;;;;;;4.88;2.78;;;;;;;;;;5006475;28;20343;-61
2022/08/19 11:56:07;;;;;;;3.83;3.00;;;;;;;;;;5006787;28;20024;-61
2022/08/19 11:58:32;;;;;;;6.70;2.70;;;;;;;;;;5006755;28;20093;-60
2022/08/19 12:00:58;;;;;;;6.82;2.90;;;;;;;;;;5006764;28;20459;-61
2022/08/19 12:03:23;;;;;;;7.80;3.42;;;;;;;;;;5006756;28;20032;-62
2022/08/19 12:05:49;;;;;;;4.95;2.72;;;;;;;;;;5008321;28;20510;-62
2022/08/19 12:08:15;;;;;;;4.15;2.67;;;;;;;;;;5006542;28;20478;-61
2022/08/19 12:10:42;;;;;;;8.65;3.38;;;;;;;;;;5006969;28;20419;-60
2022/08/19 12:13:08;;;;;;;4.45;2.90;;;;;;;;;;5006787;28;20413;-61
2022/08/19 12:15:40;;;;;;;6.70;2.80;;;;;;;;;;5006406;28;20063;-61
2022/08/19 12:18:05;;;;;;;4.72;2.45;;;;;;;;;;5006552;28;20436;-60
2022/08/19 12:20:31;;;;;;;4.93;2.60;;;;;;;;;;5007479;28;20313;-60
2022/08/19 12:22:56;;;;;;;4.28;2.80;;;;;;;;;;5006627;28;20343;-60
2022/08/19 12:25:22;;;;;;;6.05;2.90;;;;;;;;;;5006364;28;20334;-61
2022/08/19 12:27:47;;;;;;;3.40;2.80;;;;;;;;;;5006317;28;20500;-61
2022/08/19 12:30:13;;;;;;;3.90;2.40;;;;;;;;;;5006261;28;20028;-61
2022/08/19 12:32:39;;;;;;;4.15;2.70;;;;;;;;;;5006420;28;20329;-60
2022/08/19 12:35:06;;;;;;;7.65;3.25;;;;;;;;;;5006135;28;20340;-62
2022/08/19 12:37:32;;;;;;;4.82;3.22;;;;;;;;;;5006604;28;20421;-62
2022/08/19 12:39:58;;;;;;;5.60;3.22;;;;;;;;;;5006208;28;20090;-63
2022/08/19 12:42:23;;;;;;;6.72;3.22;;;;;;;;;;5006375;28;20511;-62
2022/08/19 12:44:50;;;;;;;4.53;3.05;;;;;;;;;;5005969;28;20044;-61
2022/08/19 12:47:16;;;;;;;5.25;2.97;;;;;;;;;;5006546;28;20477;-61
2022/08/19 12:49:43;;;;;;;4.18;2.90;;;;;;;;;;5007444;28;20493;-60
2022/08/19 12:52:09;;;;;;;3.92;2.83;;;;;;;;;;5006825;28;20424;-62
2022/08/19 12:54:36;;;;;;;4.72;2.60;;;;;;;;;;5005833;28;20489;-61
2022/08/19 12:57:05;;;;;;;4.80;2.00;;;;;;;;;;4988190;28;20446;-60
2022/08/19 12:59:31;;;;;;;5.15;3.10;;;;;;;;;;5005928;28;20079;-60
2022/08/19 13:01:57;;;;;;;4.25;2.80;;;;;;;;;;5005882;28;20515;-61
2022/08/19 13:04:22;;;;;;;5.18;2.63;;;;;;;;;;5006463;28;20098;-61
2022/08/19 13:06:48;;;;;;;6.05;2.80;;;;;;;;;;5008805;28;20059;-60
2022/08/19 13:09:13;;;;;;;4.15;2.70;;;;;;;;;;5010103;28;20707;-61
2022/08/19 13:11:38;;;;;;;7.00;2.70;;;;;;;;;;5011332;28;20530;-61
2022/08/19 13:14:04;;;;;;;8.27;3.25;;;;;;;;;;5009824;28;20025;-60
2022/08/19 13:16:30;;;;;;;4.05;2.92;;;;;;;;;;5009759;28;20102;-60
2022/08/19 13:18:56;;;;;;;3.53;2.70;;;;;;;;;;5010370;28;20446;-62
2022/08/19 13:21:25;;;;;;;5.03;2.80;;;;;;;;;;5010076;28;20028;-62
2022/08/19 13:23:51;;;;;;;5.55;2.70;;;;;;;;;;5009632;28;20107;-62
2022/08/19 13:26:17;;;;;;;4.05;2.78;;;;;;;;;;5009563;28;20371;-66
2022/08/19 13:34:31;;;;;;;4.18;3.13;;;;;;;;;;5010285;28;20505;-62
2022/08/19 13:36:57;;;;;;;5.57;3.55;;;;;;;;;;5010665;28;20469;-62
2022/08/19 13:39:23;;;;;;;5.20;3.25;;;;;;;;;;5009939;28;20406;-62
2022/08/19 13:41:49;;;;;;;6.65;3.50;;;;;;;;;;5009167;28;20416;-62
2022/08/19 13:44:18;;;;;;;5.57;3.10;;;;;;;;;;5009158;28;20359;-62
2022/08/19 13:46:44;;;;;;;5.78;3.50;;;;;;;;;;5009511;28;20340;-62
2022/08/19 13:49:10;;;;;;;5.88;2.60;;;;;;;;;;5009087;28;20356;-62
2022/08/19 13:51:35;;;;;;;3.58;2.70;;;;;;;;;;5009039;28;20344;-62
2022/08/19 13:54:01;;;;;;;5.18;3.05;;;;;;;;;;4990878;28;20320;-62
2022/08/19 13:56:26;;;;;;;6.28;3.63;;;;;;;;;;5008994;28;20522;-62
2022/08/19 13:58:51;;;;;;;9.55;2.90;;;;;;;;;;5008903;28;20343;-62
2022/08/19 14:01:21;;;;;;;6.15;2.85;;;;;;;;;;5008936;28;20463;-62
2022/08/19 14:03:46;;;;;;;5.80;2.90;;;;;;;;;;5009423;28;20044;-62
2022/08/19 14:06:12;;;;;;;5.50;2.88;;;;;;;;;;5009606;28;20423;-62
2022/08/19 14:08:39;;;;;;;3.88;2.70;;;;;;;;;;5010053;28;20454;-62
2022/08/19 14:11:04;;;;;;;5.28;3.17;;;;;;;;;;5008627;28;20102;-62
2022/08/19 14:13:30;;;;;;;7.03;3.30;;;;;;;;;;5008499;28;20110;-63
2022/08/19 14:15:56;;;;;;;4.63;2.72;;;;;;;;;;5008272;28;20093;-62
2022/08/19 14:18:22;;;;;;;3.90;2.72;;;;;;;;;;4990460;28;20319;-62
2022/08/19 14:20:48;;;;;;;5.80;3.22;;;;;;;;;;5008802;28;20025;-62
2022/08/19 14:23:13;;;;;;;4.10;3.15;;;;;;;;;;5008503;28;20524;-62
2022/08/19 14:25:39;;;;;;;6.82;3.10;;;;;;;;;;5008386;28;20431;-62
2022/08/19 14:28:04;;;;;;;9.07;3.03;;;;;;;;;;5010013;28;20040;-62
2022/08/19 14:30:32;;;;;;;6.00;3.28;;;;;;;;;;5009514;28;20415;-63
2022/08/19 14:33:00;;;;;;;7.28;3.40;;;;;;;;;;5008525;28;20446;-62
2022/08/19 14:35:27;;;;;;;6.03;2.72;;;;;;;;;;5008696;28;20339;-62
2022/08/19 14:37:55;;;;;;;3.97;2.60;;;;;;;;;;4990108;28;20389;-63
2022/08/19 14:40:26;;;;;;;5.32;3.28;;;;;;;;;;5008331;28;20024;-62
2022/08/19 14:42:59;;;;;;;4.07;2.85;;;;;;;;;;5008544;28;20024;-62
2022/08/19 14:45:26;;;;;;;3.22;2.67;;;;;;;;;;5007645;28;20383;-63
2022/08/19 14:47:52;;;;;;;4.47;2.75;;;;;;;;;;5008364;28;20502;-62
2022/08/19 14:50:18;;;;;;;5.97;3.15;;;;;;;;;;5009866;28;20430;-62
2022/08/19 14:52:44;;;;;;;4.20;2.90;;;;;;;;;;5008652;28;20021;-62
2022/08/19 14:55:09;;;;;;;4.72;3.15;;;;;;;;;;5007654;28;20133;-62
2022/08/19 14:57:35;;;;;;;4.18;3.13;;;;;;;;;;5009489;28;20498;-62
2022/08/19 15:00:00;;;;;;;4.00;2.85;;;;;;;;;;5008814;28;20093;-63
2022/08/19 15:02:26;;;;;;;5.15;2.60;;;;;;;;;;5007742;28;20446;-62
2022/08/19 15:04:51;;;;;;;4.55;2.85;;;;;;;;;;5007774;28;20032;-62
2022/08/19 15:07:17;;;;;;;6.68;2.67;;;;;;;;;;5008009;28;20421;-63
2022/08/19 15:09:42;;;;;;;5.75;2.78;;;;;;;;;;5007587;28;20407;-62
2022/08/19 15:12:08;;;;;;;7.60;2.83;;;;;;;;;;5009263;28;20406;-63
2022/08/19 15:14:37;;;;;;;5.32;2.85;;;;;;;;;;5008545;28;20101;-62
2022/08/19 15:17:03;;;;;;;2.92;2.47;;;;;;;;;;5007374;28;20474;-62
2022/08/19 15:19:30;;;;;;;7.25;2.63;;;;;;;;;;4989590;28;20424;-65
2022/08/19 15:21:55;;;;;;;5.15;2.88;;;;;;;;;;5008736;28;20427;-62
2022/08/19 15:24:22;;;;;;;4.32;3.30;;;;;;;;;;5007574;28;20372;-62
2022/08/19 15:26:48;;;;;;;5.60;3.22;;;;;;;;;;5007266;28;20470;-62
2022/08/19 15:29:15;;;;;;;5.25;3.33;;;;;;;;;;5006508;28;20132;-62
2022/08/19 15:31:41;;;;;;;11.40;3.58;;;;;;;;;;5007163;28;20386;-62
2022/08/19 15:34:06;;;;;;;6.15;3.38;;;;;;;;;;5006984;28;20032;-62
2022/08/19 15:36:32;;;;;;;4.45;2.80;;;;;;;;;;5007073;28;20367;-63
2022/08/19 15:38:57;;;;;;;5.07;3.15;;;;;;;;;;5007954;28;20489;-62
2022/08/19 15:41:26;;;;;;;4.75;3.35;;;;;;;;;;5008856;28;20394;-62
2022/08/19 15:44:04;;;;;;;4.82;2.78;;;;;;;;;;5006864;28;20506;-62
2022/08/19 15:46:32;;;;;;;4.03;3.03;;;;;;;;;;5006858;28;20378;-62
2022/08/19 15:48:59;;;;;;;6.38;3.28;;;;;;;;;;5006940;28;20028;-63
2022/08/19 15:51:26;;;;;;;3.20;2.72;;;;;;;;;;5006813;28;20028;-62
2022/08/19 15:53:52;;;;;;;6.80;3.40;;;;;;;;;;5006724;28;20431;-62
2022/08/19 15:56:17;;;;;;;5.07;2.92;;;;;;;;;;5007823;28;20735;-62
2022/08/19 16:06:47;;;;;;;5.47;2.92;;;;;;;;;;5007626;28;20051;-62
2022/08/19 16:09:13;;;;;;;4.57;2.80;;;;;;;;;;5007044;28;20071;-63
2022/08/19 16:11:39;;;;;;;4.25;2.88;;;;;;;;;;5007235;28;20427;-64
2022/08/19 16:14:07;;;;;;;3.55;2.97;;;;;;;;;;5006891;28;20442;-62
2022/08/19 16:16:33;;;;;;;8.43;3.75;;;;;;;;;;5006378;28;20029;-62
2022/08/19 16:19:01;;;;;;;4.55;3.03;;;;;;;;;;5007445;28;20489;-62
2022/08/19 16:21:32;;;;;;;4.63;2.75;;;;;;;;;;5006440;28;20391;-62
2022/08/19 16:23:59;;;;;;;3.50;2.92;;;;;;;;;;5007028;28;20327;-62
2022/08/19 16:26:25;;;;;;;4.35;3.30;;;;;;;;;;5006667;28;20174;-62
2022/08/19 16:28:50;;;;;;;4.93;3.10;;;;;;;;;;5006304;28;20526;-62
2022/08/19 16:31:16;;;;;;;4.60;3.28;;;;;;;;;;5006654;28;20347;-62
2022/08/19 16:33:41;;;;;;;7.40;2.60;;;;;;;;;;5006458;28;20448;-62
2022/08/19 16:36:07;;;;;;;3.95;2.97;;;;;;;;;;5006070;28;20424;-62
2022/08/19 16:38:33;;;;;;;4.03;3.00;;;;;;;;;;5006132;28;20024;-63
2022/08/19 16:41:00;;;;;;;4.00;2.95;;;;;;;;;;5005854;28;20424;-62
2022/08/19 16:43:27;;;;;;;5.18;2.70;;;;;;;;;;5006017;28;20379;-62
2022/08/19 16:45:53;;;;;;;3.40;2.50;;;;;;;;;;5006080;28;20543;-63
2022/08/19 16:48:20;;;;;;;7.03;3.08;;;;;;;;;;5005806;28;20428;-63
2022/08/19 16:50:46;;;;;;;3.85;2.63;;;;;;;;;;5006080;28;20437;-62
2022/08/19 16:53:13;;;;;;;5.18;2.70;;;;;;;;;;4988657;28;20431;-61
2022/08/19 16:55:39;;;;;;;4.43;2.67;;;;;;;;;;4986248;28;20088;-62
2022/08/19 16:58:05;;;;;;;5.80;2.75;;;;;;;;;;4986245;28;20428;-63
2022/08/19 17:00:31;;;;;;;4.35;2.65;;;;;;;;;;4986173;28;20346;-62
2022/08/19 17:02:56;;;;;;;3.58;2.85;;;;;;;;;;4987081;28;20343;-61
2022/08/19 17:05:21;;;;;;;3.53;2.72;;;;;;;;;;4984748;28;20367;-62
2022/08/19 17:07:47;;;;;;;5.35;3.00;;;;;;;;;;4986219;28;20395;-62
2022/08/19 17:10:12;;;;;;;3.83;2.80;;;;;;;;;;4986085;28;20432;-62
2022/08/19 17:12:37;;;;;;;6.15;2.63;;;;;;;;;;4986019;28;20577;-62
2022/08/19 17:15:05;;;;;;;4.53;3.10;;;;;;;;;;4986001;28;20397;-63
2022/08/19 17:17:30;;;;;;;4.53;2.77;;;;;;;;;;4987335;28;20397;-64
2022/08/19 17:19:57;;;;;;;4.20;3.03;;;;;;;;;;4986552;28;20279;-62
2022/08/19 17:22:23;;;;;;;3.65;2.95;;;;;;;;;;4986035;28;20494;-62
2022/08/19 17:24:48;;;;;;;6.03;2.80;;;;;;;;;;4986788;28;20511;-64
2022/08/19 17:27:14;;;;;;;3.95;3.00;;;;;;;;;;4986528;28;20439;-62
2022/08/19 17:29:39;;;;;;;5.03;3.47;;;;;;;;;;4985961;28;20420;-62
2022/08/19 17:32:06;;;;;;;4.13;3.17;;;;;;;;;;4968074;28;20432;-62
2022/08/19 17:34:32;;;;;;;3.42;2.85;;;;;;;;;;4985858;28;20355;-62
2022/08/19 17:36:57;;;;;;;5.20;3.22;;;;;;;;;;4985715;28;20333;-62
2022/08/19 17:39:24;;;;;;;5.93;2.95;;;;;;;;;;4985826;28;20021;-62
2022/08/19 17:41:49;;;;;;;5.10;2.70;;;;;;;;;;4986058;28;20100;-62
2022/08/19 17:44:14;;;;;;;4.55;3.03;;;;;;;;;;4985463;28;20045;-63
2022/08/19 17:46:40;;;;;;;3.30;2.75;;;;;;;;;;4985966;28;20427;-63
2022/08/19 17:49:05;;;;;;;4.68;3.13;;;;;;;;;;4985891;28;20443;-62
2022/08/19 17:51:40;;;;;;;4.22;3.22;;;;;;;;;;4986501;28;20021;-62
2022/08/19 17:54:09;;;;;;;4.38;2.63;;;;;;;;;;4989754;28;20490;-62
2022/08/19 17:56:36;;;;;;;5.07;3.40;;;;;;;;;;4990109;28;20470;-62
2022/08/19 17:59:03;;;;;;;6.10;2.95;;;;;;;;;;4989265;28;20065;-62
2022/08/19 18:01:29;;;;;;;5.38;3.17;;;;;;;;;;4989122;28;20075;-62
2022/08/19 18:03:54;;;;;;;7.10;2.72;;;;;;;;;;4989323;28;20548;-63
2022/08/19 18:06:20;;;;;;;4.68;3.08;;;;;;;;;;4990838;28;20469;-62
2022/08/19 18:08:47;;;;;;;5.07;3.05;;;;;;;;;;4990631;28;20391;-62
2022/08/19 18:11:14;;;;;;;3.80;2.90;;;;;;;;;;4988960;28;20526;-62
2022/08/19 18:13:39;;;;;;;4.50;3.55;;;;;;;;;;4989531;28;20056;-62
2022/08/19 18:16:09;;;;;;;5.22;3.03;;;;;;;;;;4988841;28;20137;-63
2022/08/19 18:18:36;;;;;;;6.05;3.47;;;;;;;;;;4988890;28;20390;-63
2022/08/19 18:21:01;;;;;;;5.32;3.20;;;;;;;;;;4970988;28;20367;-62
2022/08/19 18:23:27;;;;;;;5.25;3.05;;;;;;;;;;4989043;28;20044;-61
2022/08/19 18:25:52;;;;;;;6.95;3.25;;;;;;;;;;4989996;28;20331;-62
2022/08/19 18:28:18;;;;;;;3.60;3.13;;;;;;;;;;4988775;28;20410;-62
2022/08/19 18:30:43;;;;;;;3.65;2.60;;;;;;;;;;4988604;28;20424;-62
2022/08/19 18:33:13;;;;;;;4.90;3.28;;;;;;;;;;4988765;28;20336;-62
2022/08/19 18:35:44;;;;;;;4.30;3.50;;;;;;;;;;4990683;28;20525;-63
2022/08/19 18:49:09;;;;;;;4.97;3.30;;;;;;;;;;4990018;28;20459;-62
2022/08/19 18:51:34;;;;;;;6.25;3.55;;;;;;;;;;4989045;28;20051;-62
2022/08/19 18:54:00;;;;;;;8.38;3.47;;;;;;;;;;4988359;28;20586;-63
2022/08/19 18:56:28;;;;;;;4.05;3.20;;;;;;;;;;4989548;28;20360;-62
2022/08/19 18:58:55;;;;;;;8.85;3.45;;;;;;;;;;4988199;28;21167;-63
2022/08/19 19:01:25;;;;;;;5.22;3.72;;;;;;;;;;4989375;28;20374;-62
2022/08/19 19:03:52;;;;;;;5.03;3.20;;;;;;;;;;4988023;28;20422;-62
2022/08/19 19:06:21;;;;;;;5.10;3.60;;;;;;;;;;4988575;28;20452;-63
2022/08/19 19:08:49;;;;;;;5.95;3.65;;;;;;;;;;4987944;28;20033;-62
2022/08/19 19:11:21;;;;;;;6.63;3.88;;;;;;;;;;4987883;28;20479;-62
2022/08/19 19:13:48;;;;;;;4.57;3.20;;;;;;;;;;4987751;28;20343;-63
2022/08/19 19:16:14;;;;;;;5.80;3.25;;;;;;;;;;4987840;28;20428;-62
2022/08/19 19:18:41;;;;;;;8.15;3.75;;;;;;;;;;4987652;28;20391;-62
2022/08/19 19:21:08;;;;;;;6.28;3.83;;;;;;;;;;4987924;28;20497;-62
2022/08/19 19:23:33;;;;;;;8.30;3.40;;;;;;;;;;4989830;28;20333;-61
2022/08/19 19:25:59;;;;;;;6.75;3.33;;;;;;;;;;4987929;28;20379;-62
2022/08/19 19:28:27;;;;;;;5.45;3.80;;;;;;;;;;4987685;28;20363;-62
2022/08/19 19:30:57;;;;;;;6.10;3.50;;;;;;;;;;4988144;28;20356;-62
2022/08/19 19:33:23;;;;;;;5.63;3.63;;;;;;;;;;4987365;28;20382;-62
2022/08/19 19:35:48;;;;;;;8.20;3.60;;;;;;;;;;4989111;28;20403;-62
2022/08/19 19:38:14;;;;;;;6.43;3.20;;;;;;;;;;4988407;28;20072;-63
2022/08/19 19:40:39;;;;;;;7.57;3.80;;;;;;;;;;4988576;28;20486;-63
2022/08/19 19:43:05;;;;;;;7.78;3.92;;;;;;;;;;4987698;28;20428;-62
2022/08/19 19:45:30;;;;;;;5.82;3.63;;;;;;;;;;4988013;28;20482;-62
2022/08/19 19:47:57;;;;;;;8.95;3.42;;;;;;;;;;4987380;28;20371;-63
2022/08/19 19:50:22;;;;;;;8.35;3.67;;;;;;;;;;4987281;28;20056;-62
2022/08/19 19:52:48;;;;;;;8.02;3.13;;;;;;;;;;4987821;28;20428;-63
2022/08/19 19:55:16;;;;;;;5.18;3.13;;;;;;;;;;4987267;28;20347;-62
2022/08/19 19:57:43;;;;;;;;;;;;;;;;;;4988166;28;20332;-62
2022/08/19 20:00:11;;;;;;;7.93;3.45;;;;;;;;;;4987010;28;20241;-63
2022/08/19 20:02:37;;;;;;;5.28;3.20;;;;;;;;;;4987945;28;20325;-61
2022/08/19 20:05:03;;;;;;;7.00;3.80;;;;;;;;;;4987489;28;20375;-62